createdAt,value
2019-04-16T00:00:52.246Z,8.96
2019-04-16T00:03:23.035Z,8.93
2019-04-16T00:05:58.471Z,8.92
2019-04-16T00:08:30.238Z,8.93
2019-04-16T00:11:05.756Z,8.90
2019-04-16T00:13:35.709Z,8.90
2019-04-16T00:16:04.004Z,8.89
2019-04-16T00:18:32.309Z,8.85
2019-04-16T00:21:06.450Z,8.83
2019-04-16T00:23:39.335Z,8.80
2019-04-16T00:26:08.938Z,8.75
2019-04-16T00:28:37.267Z,8.73
2019-04-16T00:31:05.946Z,8.73
2019-04-16T00:33:34.290Z,8.75
2019-04-16T00:36:02.673Z,8.72
2019-04-16T00:38:40.568Z,8.67
2019-04-16T00:41:02.044Z,8.65
2019-04-16T00:43:30.842Z,8.60
2019-04-16T00:45:59.134Z,8.56
2019-04-16T00:48:27.415Z,8.52
2019-04-16T00:50:55.964Z,8.47
2019-04-16T00:53:24.388Z,8.47
2019-04-16T00:55:53.059Z,8.44
2019-04-16T00:58:21.680Z,8.40
2019-04-16T01:00:49.993Z,8.38
2019-04-16T01:03:18.299Z,8.35
2019-04-16T01:05:46.698Z,8.30
2019-04-16T01:08:14.978Z,8.27
2019-04-16T01:10:43.272Z,8.24
2019-04-16T01:13:11.585Z,8.22
2019-04-16T01:15:39.878Z,8.20
2019-04-16T01:18:09.009Z,8.19
2019-04-16T01:20:37.370Z,8.13
2019-04-16T01:23:06.025Z,8.10
2019-04-16T01:25:34.311Z,8.08
2019-04-16T01:28:04.254Z,8.02
2019-04-16T01:30:50.177Z,8.01
2019-04-16T01:33:20.397Z,7.99
2019-04-16T01:35:53.020Z,7.95
2019-04-16T01:38:27.716Z,7.93
2019-04-16T01:41:03.356Z,7.90
2019-04-16T01:43:31.695Z,7.94
2019-04-16T01:46:01.593Z,7.88
2019-04-16T01:48:30.144Z,7.83
2019-04-16T01:50:58.446Z,7.78
2019-04-16T01:53:26.740Z,7.77
2019-04-16T01:55:57.003Z,7.74
2019-04-16T01:58:25.077Z,7.71
2019-04-16T02:00:53.387Z,7.71
2019-04-16T02:03:21.743Z,7.70
2019-04-16T02:05:54.586Z,7.68
2019-04-16T02:08:20.056Z,7.69
2019-04-16T02:10:48.631Z,7.66
2019-04-16T02:13:16.915Z,7.62
2019-04-16T02:15:45.589Z,7.58
2019-04-16T02:18:13.890Z,7.57
2019-04-16T02:20:42.540Z,7.55
2019-04-16T02:23:13.516Z,7.55
2019-04-16T02:25:41.138Z,7.51
2019-04-16T02:28:09.478Z,7.48
2019-04-16T02:30:39.695Z,7.43
2019-04-16T02:33:07.915Z,7.44
2019-04-16T02:35:36.228Z,7.38
2019-04-16T02:38:11.099Z,7.38
2019-04-16T02:40:34.898Z,7.34
2019-04-16T02:43:06.554Z,7.32
2019-04-16T02:45:33.264Z,7.34
2019-04-16T02:48:01.558Z,7.30
2019-04-16T02:50:34.463Z,7.29
2019-04-16T02:53:04.373Z,7.28
2019-04-16T02:55:42.600Z,7.24
2019-04-16T02:58:14.587Z,7.26
2019-04-16T03:00:50.790Z,7.24
2019-04-16T03:03:37.430Z,7.24
2019-04-16T03:06:06.094Z,7.18
2019-04-16T03:08:36.021Z,7.15
2019-04-16T03:11:04.710Z,7.15
2019-04-16T03:13:33.004Z,7.12
2019-04-16T03:16:07.127Z,7.07
2019-04-16T03:18:37.803Z,7.05
2019-04-16T03:21:06.722Z,7.03
2019-04-16T03:23:37.529Z,7.06
2019-04-16T03:26:05.092Z,7.00
2019-04-16T03:28:33.408Z,6.96
2019-04-16T03:31:06.832Z,6.91
2019-04-16T03:33:31.793Z,6.90
2019-04-16T03:36:00.085Z,6.88
2019-04-16T03:38:28.719Z,6.89
2019-04-16T03:40:57.013Z,6.89
2019-04-16T03:43:25.598Z,6.89
2019-04-16T03:45:54.371Z,6.84
2019-04-16T03:48:23.456Z,6.82
2019-04-16T03:50:52.694Z,6.80
2019-04-16T03:53:20.971Z,6.79
2019-04-16T03:55:49.264Z,6.80
2019-04-16T03:58:17.899Z,6.79
2019-04-16T04:00:46.198Z,6.73
2019-04-16T04:03:14.499Z,6.69
2019-04-16T04:05:44.449Z,6.65
2019-04-16T04:08:16.363Z,6.59
2019-04-16T04:10:43.076Z,6.54
2019-04-16T04:13:11.373Z,6.51
2019-04-16T04:15:39.656Z,6.48
2019-04-16T04:18:11.790Z,6.48
2019-04-16T04:20:37.982Z,6.51
2019-04-16T04:23:06.522Z,6.53
2019-04-16T04:25:36.367Z,6.54
2019-04-16T04:28:05.262Z,6.56
2019-04-16T04:30:33.556Z,6.56
2019-04-16T04:33:07.434Z,6.53
2019-04-16T04:35:32.316Z,6.50
2019-04-16T04:38:03.536Z,6.51
2019-04-16T04:40:43.817Z,6.48
2019-04-16T04:43:01.747Z,6.48
2019-04-16T04:45:30.095Z,6.50
2019-04-16T04:47:58.413Z,6.54
2019-04-16T04:50:26.764Z,6.59
2019-04-16T04:52:55.078Z,6.61
2019-04-16T04:55:26.857Z,6.60
2019-04-16T04:57:53.720Z,6.57
2019-04-16T05:00:22.025Z,6.59
2019-04-16T05:02:50.415Z,6.59
2019-04-16T05:05:24.267Z,6.63
2019-04-16T05:07:50.451Z,6.70
2019-04-16T05:10:18.728Z,6.76
2019-04-16T05:12:47.132Z,6.85
2019-04-16T05:15:15.423Z,6.97
2019-04-16T05:17:43.708Z,7.10
2019-04-16T05:20:15.458Z,7.33
2019-04-16T05:22:43.336Z,7.60
2019-04-16T05:25:12.041Z,7.93
2019-04-16T05:27:41.509Z,8.18
2019-04-16T05:30:10.319Z,8.57
2019-04-16T05:32:39.014Z,8.90
2019-04-16T05:35:10.283Z,9.16
2019-04-16T05:37:37.896Z,9.33
2019-04-16T05:40:07.247Z,9.31
2019-04-16T05:42:35.802Z,9.24
2019-04-16T05:45:06.406Z,9.13
2019-04-16T05:47:34.818Z,8.93
2019-04-16T05:50:03.485Z,8.68
2019-04-16T05:52:32.258Z,8.57
2019-04-16T05:55:03.523Z,8.42
2019-04-16T05:57:33.768Z,8.36
2019-04-16T06:00:03.365Z,8.41
2019-04-16T06:02:36.468Z,8.49
2019-04-16T06:05:06.438Z,8.53
2019-04-16T06:07:37.708Z,8.60
2019-04-16T06:10:07.750Z,8.59
2019-04-16T06:12:40.053Z,8.60
2019-04-16T06:15:09.531Z,8.65
2019-04-16T06:17:48.366Z,8.69
2019-04-16T06:20:21.754Z,8.74
2019-04-16T06:23:03.775Z,8.81
2019-04-16T06:25:33.713Z,8.86
2019-04-16T06:28:09.717Z,8.82
2019-04-16T06:30:39.662Z,8.92
2019-04-16T06:33:09.613Z,8.97
2019-04-16T06:35:48.292Z,9.03
2019-04-16T06:38:26.870Z,9.06
2019-04-16T06:41:05.724Z,9.09
2019-04-16T06:43:38.466Z,9.12
2019-04-16T06:46:09.444Z,9.14
2019-04-16T06:48:48.815Z,9.25
2019-04-16T06:51:18.769Z,9.29
2019-04-16T06:53:56.873Z,9.31
2019-04-16T06:56:42.485Z,9.36
2019-04-16T06:59:18.131Z,9.41
2019-04-16T07:01:51.070Z,9.50
2019-04-16T07:04:21.005Z,9.55
2019-04-16T07:06:51.201Z,9.58
2019-04-16T07:09:25.245Z,9.71
2019-04-16T07:11:54.645Z,9.88
2019-04-16T07:14:22.849Z,9.86
2019-04-16T07:16:51.485Z,9.86
2019-04-16T07:19:19.783Z,9.91
2019-04-16T07:21:49.606Z,10.07
2019-04-16T07:24:22.125Z,10.20
2019-04-16T07:26:48.681Z,10.28
2019-04-16T07:29:21.871Z,10.36
2019-04-16T07:31:57.834Z,10.39
2019-04-16T07:34:39.835Z,10.43
2019-04-16T07:37:15.558Z,10.37
2019-04-16T07:40:01.712Z,10.39
2019-04-16T07:42:52.188Z,10.45
2019-04-16T07:45:29.759Z,10.50
2019-04-16T07:47:59.688Z,10.55
2019-04-16T07:50:46.185Z,10.57
2019-04-16T07:53:16.508Z,10.68
2019-04-16T07:55:48.860Z,10.86
2019-04-16T07:58:17.399Z,10.91
2019-04-16T08:00:46.369Z,11.06
2019-04-16T08:03:14.699Z,11.14
2019-04-16T08:05:42.970Z,11.14
2019-04-16T08:08:11.283Z,11.20
2019-04-16T08:10:39.588Z,11.25
2019-04-16T08:13:18.686Z,11.43
2019-04-16T08:15:47.645Z,11.52
2019-04-16T08:18:16.145Z,11.53
2019-04-16T08:20:44.443Z,11.48
2019-04-16T08:23:26.416Z,11.56
2019-04-16T08:26:02.630Z,11.63
2019-04-16T08:28:25.891Z,11.67
2019-04-16T08:30:54.206Z,11.77
2019-04-16T08:33:22.551Z,11.88
2019-04-16T08:35:50.903Z,11.90
2019-04-16T08:38:19.154Z,11.93
2019-04-16T08:40:47.458Z,12.01
2019-04-16T08:43:15.785Z,12.11
2019-04-16T08:45:44.391Z,12.14
2019-04-16T08:48:16.852Z,12.22
2019-04-16T08:50:42.908Z,12.41
2019-04-16T08:53:14.256Z,12.49
2019-04-16T08:55:41.895Z,12.60
2019-04-16T08:58:12.656Z,12.69
2019-04-16T09:00:40.493Z,12.71
2019-04-16T09:03:09.070Z,12.83
2019-04-16T09:05:41.287Z,12.94
2019-04-16T09:08:13.769Z,12.96
2019-04-16T09:10:44.642Z,12.96
2019-04-16T09:13:16.928Z,12.94
2019-04-16T09:15:45.244Z,12.98
2019-04-16T09:18:15.171Z,12.98
2019-04-16T09:20:44.227Z,13.02
2019-04-16T09:23:12.523Z,13.11
2019-04-16T09:25:45.930Z,13.21
2019-04-16T09:28:26.293Z,13.27
2019-04-16T09:31:11.794Z,13.28
2019-04-16T09:33:42.024Z,13.32
2019-04-16T09:36:15.166Z,13.35
2019-04-16T09:38:48.035Z,13.40
2019-04-16T09:41:27.060Z,13.54
2019-04-16T09:43:57.977Z,13.67
2019-04-16T09:46:49.900Z,13.79
2019-04-16T09:48:56.839Z,13.77
2019-04-16T09:51:26.249Z,13.83
2019-04-16T09:53:55.107Z,13.94
2019-04-16T09:56:28.918Z,13.94
2019-04-16T09:58:59.741Z,14.07
2019-04-16T10:01:32.124Z,14.08
2019-04-16T10:04:00.487Z,14.15
2019-04-16T10:06:28.778Z,14.31
2019-04-16T10:08:57.125Z,14.41
2019-04-16T10:11:25.716Z,14.43
2019-04-16T10:13:54.031Z,14.49
2019-04-16T10:16:23.963Z,14.61
2019-04-16T10:18:52.288Z,14.72
2019-04-16T10:21:20.840Z,14.81
2019-04-16T10:23:53.517Z,14.94
2019-04-16T10:26:21.805Z,14.85
2019-04-16T10:28:50.162Z,14.81
2019-04-16T10:31:20.063Z,14.84
2019-04-16T10:33:48.374Z,14.88
2019-04-16T10:36:17.026Z,14.95
2019-04-16T10:38:49.702Z,14.96
2019-04-16T10:41:22.066Z,14.94
2019-04-16T10:43:58.483Z,15.01
2019-04-16T10:46:45.181Z,15.15
2019-04-16T10:49:18.381Z,15.25
2019-04-16T10:51:48.315Z,15.29
2019-04-16T10:54:24.343Z,15.40
2019-04-16T10:57:10.654Z,15.40
2019-04-16T10:59:58.869Z,15.36
2019-04-16T11:02:31.533Z,15.43
2019-04-16T11:05:04.133Z,15.54
2019-04-16T11:07:34.098Z,15.67
2019-04-16T11:10:02.859Z,15.73
2019-04-16T11:12:31.246Z,15.79
2019-04-16T11:14:59.563Z,15.86
2019-04-16T11:17:29.056Z,16.02
2019-04-16T11:20:00.031Z,16.07
2019-04-16T11:22:27.721Z,16.10
2019-04-16T11:24:56.396Z,16.05
2019-04-16T11:27:24.765Z,16.05
2019-04-16T11:29:53.067Z,16.11
2019-04-16T11:32:25.982Z,16.15
2019-04-16T11:34:54.297Z,16.18
2019-04-16T11:37:22.663Z,16.21
2019-04-16T11:39:50.956Z,16.24
2019-04-16T11:42:19.257Z,16.32
2019-04-16T11:44:50.224Z,16.36
2019-04-16T11:47:17.803Z,16.44
2019-04-16T11:49:46.193Z,16.42
2019-04-16T11:52:14.766Z,16.49
2019-04-16T11:54:46.807Z,16.61
2019-04-16T11:57:13.845Z,16.62
2019-04-16T11:59:42.254Z,16.76
2019-04-16T12:02:24.388Z,16.96
2019-04-16T12:04:58.806Z,17.02
2019-04-16T12:07:28.872Z,17.07
2019-04-16T12:10:07.846Z,17.09
2019-04-16T12:12:37.843Z,17.06
2019-04-16T12:15:11.191Z,17.10
2019-04-16T12:17:57.698Z,17.10
2019-04-16T12:20:46.165Z,17.20
2019-04-16T12:23:24.868Z,17.31
2019-04-16T12:25:54.811Z,17.40
2019-04-16T12:28:43.534Z,17.37
2019-04-16T12:31:17.122Z,17.37
2019-04-16T12:33:55.805Z,17.44
2019-04-16T12:36:25.828Z,17.48
2019-04-16T12:39:05.093Z,17.59
2019-04-16T12:41:37.825Z,17.55
2019-04-16T12:44:10.645Z,17.54
2019-04-16T12:46:40.658Z,17.58
2019-04-16T12:49:19.380Z,17.75
2019-04-16T12:51:49.320Z,17.72
2019-04-16T12:54:28.547Z,17.80
2019-04-16T12:57:14.932Z,17.90
2019-04-16T12:59:54.994Z,17.92
2019-04-16T13:02:37.818Z,17.89
2019-04-16T13:05:08.564Z,17.90
2019-04-16T13:07:47.333Z,17.92
2019-04-16T13:10:17.377Z,18.00
2019-04-16T13:12:50.547Z,18.04
2019-04-16T13:15:32.297Z,18.09
2019-04-16T13:18:08.297Z,18.05
2019-04-16T13:20:44.182Z,18.08
2019-04-16T13:23:16.928Z,18.11
2019-04-16T13:25:58.670Z,18.12
2019-04-16T13:28:27.247Z,18.12
2019-04-16T13:30:55.578Z,18.22
2019-04-16T13:33:23.885Z,18.26
2019-04-16T13:35:52.181Z,18.33
2019-04-16T13:38:22.141Z,18.39
2019-04-16T13:40:53.190Z,18.46
2019-04-16T13:43:22.156Z,18.49
2019-04-16T13:45:50.459Z,18.51
2019-04-16T13:48:20.409Z,18.59
2019-04-16T13:50:50.371Z,18.58
2019-04-16T13:53:32.396Z,18.65
2019-04-16T13:56:17.448Z,18.65
2019-04-16T13:58:46.275Z,18.69
2019-04-16T14:01:22.106Z,18.62
2019-04-16T14:03:50.780Z,18.65
2019-04-16T14:06:19.160Z,18.70
2019-04-16T14:08:47.463Z,18.71
2019-04-16T14:11:16.576Z,18.73
2019-04-16T14:13:46.443Z,18.76
2019-04-16T14:16:15.844Z,18.79
2019-04-16T14:18:46.558Z,18.77
2019-04-16T14:21:14.859Z,18.74
2019-04-16T14:23:43.432Z,18.74
2019-04-16T14:26:11.764Z,18.73
2019-04-16T14:28:51.248Z,18.72
2019-04-16T14:31:10.757Z,18.70
2019-04-16T14:34:00.175Z,18.72
2019-04-16T14:36:28.507Z,18.81
2019-04-16T14:38:58.466Z,18.86
2019-04-16T14:41:26.808Z,18.86
2019-04-16T14:44:02.096Z,18.88
2019-04-16T14:46:30.270Z,18.88
2019-04-16T14:48:58.564Z,18.82
2019-04-16T14:51:26.882Z,18.87
2019-04-16T14:53:56.848Z,18.85
2019-04-16T14:56:38.837Z,18.87
2019-04-16T14:59:11.487Z,18.92
2019-04-16T15:01:58.336Z,18.95
2019-04-16T15:04:28.278Z,19.01
2019-04-16T15:07:14.135Z,19.12
2019-04-16T15:10:02.423Z,19.15
2019-04-16T15:12:37.890Z,19.08
2019-04-16T15:15:08.534Z,19.10
2019-04-16T15:17:39.987Z,19.14
2019-04-16T15:20:10.163Z,19.20
2019-04-16T15:22:40.128Z,19.21
2019-04-16T15:25:21.783Z,19.19
2019-04-16T15:27:54.439Z,19.17
2019-04-16T15:30:33.090Z,19.13
2019-04-16T15:33:17.958Z,19.03
2019-04-16T15:35:53.467Z,19.01
2019-04-16T15:38:23.479Z,18.94
2019-04-16T15:41:02.448Z,18.88
2019-04-16T15:43:44.257Z,18.79
2019-04-16T15:46:29.216Z,18.73
2019-04-16T15:49:15.377Z,18.69
2019-04-16T15:51:50.622Z,18.63
2019-04-16T15:54:35.467Z,18.57
2019-04-16T15:57:20.724Z,18.59
2019-04-16T15:59:53.436Z,18.67
2019-04-16T16:02:23.367Z,18.76
2019-04-16T16:04:53.317Z,18.77
2019-04-16T16:07:24.439Z,18.73
2019-04-16T16:09:59.939Z,18.63
2019-04-16T16:12:28.814Z,18.61
2019-04-16T16:14:57.151Z,18.55
2019-04-16T16:17:25.445Z,18.48
2019-04-16T16:19:54.136Z,18.39
2019-04-16T16:22:22.445Z,18.32
2019-04-16T16:24:50.752Z,18.27
2019-04-16T16:27:19.044Z,18.23
2019-04-16T16:29:47.559Z,18.20
2019-04-16T16:32:15.877Z,18.14
2019-04-16T16:34:44.519Z,18.14
2019-04-16T16:37:12.916Z,18.13
2019-04-16T16:39:41.189Z,18.15
2019-04-16T16:42:09.578Z,18.16
2019-04-16T16:44:37.869Z,18.17
2019-04-16T16:47:08.084Z,18.14
2019-04-16T16:49:36.362Z,18.08
2019-04-16T16:52:22.443Z,18.04
2019-04-16T16:54:52.382Z,18.07
2019-04-16T16:57:28.118Z,18.01
2019-04-16T17:00:14.200Z,17.98
2019-04-16T17:02:47.054Z,17.97
2019-04-16T17:05:20.083Z,17.94
2019-04-16T17:07:50.705Z,17.91
2019-04-16T17:10:18.355Z,17.87
2019-04-16T17:12:47.010Z,17.86
2019-04-16T17:15:15.291Z,17.86
2019-04-16T17:17:43.604Z,17.82
2019-04-16T17:20:11.901Z,17.79
2019-04-16T17:22:40.994Z,17.76
2019-04-16T17:25:11.695Z,17.69
2019-04-16T17:27:51.021Z,17.64
2019-04-16T17:30:09.971Z,17.60
2019-04-16T17:32:38.545Z,17.54
2019-04-16T17:35:07.859Z,17.49
2019-04-16T17:37:37.247Z,17.45
2019-04-16T17:40:07.940Z,17.44
2019-04-16T17:42:38.549Z,17.42
2019-04-16T17:45:25.010Z,17.39
2019-04-16T17:47:57.905Z,17.36
2019-04-16T17:50:44.080Z,17.33
2019-04-16T17:53:17.183Z,17.30
2019-04-16T17:56:01.855Z,17.25
2019-04-16T17:58:31.823Z,17.18
2019-04-16T18:01:01.796Z,17.12
2019-04-16T18:03:49.880Z,17.07
2019-04-16T18:06:25.624Z,17.00
2019-04-16T18:08:58.090Z,16.94
2019-04-16T18:11:28.093Z,16.89
2019-04-16T18:14:04.649Z,16.87
2019-04-16T18:16:34.881Z,16.89
2019-04-16T18:19:04.846Z,16.86
2019-04-16T18:21:34.805Z,16.83
2019-04-16T18:24:08.061Z,16.75
2019-04-16T18:26:40.789Z,16.66
2019-04-16T18:29:10.762Z,16.58
2019-04-16T18:31:40.695Z,16.51
2019-04-16T18:34:10.997Z,16.46
2019-04-16T18:36:43.709Z,16.41
2019-04-16T18:39:22.566Z,16.35
2019-04-16T18:41:55.793Z,16.28
2019-04-16T18:44:29.382Z,16.20
2019-04-16T18:47:10.776Z,16.12
2019-04-16T18:49:39.344Z,16.04
2019-04-16T18:52:07.741Z,15.96
2019-04-16T18:54:36.075Z,15.90
2019-04-16T18:57:04.391Z,15.86
2019-04-16T18:59:32.698Z,15.85
2019-04-16T19:02:02.993Z,15.87
2019-04-16T19:04:31.306Z,15.86
2019-04-16T19:06:59.624Z,15.87
2019-04-16T19:09:27.925Z,15.88
2019-04-16T19:11:56.302Z,15.86
2019-04-16T19:14:24.604Z,15.83
2019-04-16T19:16:53.000Z,15.79
2019-04-16T19:19:22.374Z,15.75
2019-04-16T19:21:52.240Z,15.72
2019-04-16T19:24:21.041Z,15.67
2019-04-16T19:26:49.348Z,15.62
2019-04-16T19:29:17.911Z,15.58
2019-04-16T19:31:46.617Z,15.53
2019-04-16T19:34:14.924Z,15.50
2019-04-16T19:36:43.255Z,15.45
2019-04-16T19:39:15.171Z,15.39
2019-04-16T19:41:41.597Z,15.29
2019-04-16T19:44:09.878Z,15.25
2019-04-16T19:46:38.175Z,15.23
2019-04-16T19:49:06.488Z,15.20
2019-04-16T19:51:34.788Z,15.15
2019-04-16T19:54:03.125Z,15.06
2019-04-16T19:56:33.419Z,14.99
2019-04-16T19:59:02.086Z,14.91
2019-04-16T20:01:30.452Z,14.83
2019-04-16T20:03:58.778Z,14.75
2019-04-16T20:06:27.090Z,14.72
2019-04-16T20:08:55.402Z,14.70
2019-04-16T20:11:23.712Z,14.66
2019-04-16T20:13:52.050Z,14.59
2019-04-16T20:16:20.777Z,14.49
2019-04-16T20:18:51.085Z,14.43
2019-04-16T20:21:19.103Z,14.40
2019-04-16T20:23:47.757Z,14.37
2019-04-16T20:26:16.303Z,14.27
2019-04-16T20:28:45.305Z,14.17
2019-04-16T20:31:14.775Z,14.10
2019-04-16T20:33:43.424Z,14.04
2019-04-16T20:36:11.714Z,13.98
2019-04-16T20:38:40.011Z,13.91
2019-04-16T20:41:08.315Z,13.90
2019-04-16T20:43:36.621Z,13.81
2019-04-16T20:46:04.924Z,13.81
2019-04-16T20:48:33.230Z,13.79
2019-04-16T20:51:01.578Z,13.72
2019-04-16T20:53:30.215Z,13.69
2019-04-16T20:55:58.499Z,13.64
2019-04-16T20:58:30.674Z,13.53
2019-04-16T21:00:58.493Z,13.47
2019-04-16T21:03:26.814Z,13.43
2019-04-16T21:05:59.262Z,13.35
2019-04-16T21:08:26.883Z,13.27
2019-04-16T21:10:58.652Z,13.21
2019-04-16T21:13:25.579Z,13.17
2019-04-16T21:15:53.978Z,13.14
2019-04-16T21:18:23.908Z,13.07
2019-04-16T21:20:52.207Z,12.96
2019-04-16T21:23:20.529Z,12.91
2019-04-16T21:25:48.832Z,12.91
2019-04-16T21:28:30.885Z,12.87
2019-04-16T21:31:01.107Z,12.81
2019-04-16T21:33:31.321Z,12.72
2019-04-16T21:36:05.195Z,12.64
2019-04-16T21:38:38.847Z,12.57
2019-04-16T21:41:07.220Z,12.49
2019-04-16T21:43:35.776Z,12.45
2019-04-16T21:46:05.726Z,12.42
2019-04-16T21:48:34.277Z,12.39
2019-04-16T21:51:02.590Z,12.35
2019-04-16T21:53:31.168Z,12.32
2019-04-16T21:55:59.748Z,12.25
2019-04-16T21:58:28.053Z,12.20
2019-04-16T22:00:59.767Z,12.14
2019-04-16T22:03:33.874Z,12.09
2019-04-16T22:06:00.124Z,12.04
2019-04-16T22:08:29.764Z,12.02
2019-04-16T22:10:58.674Z,12.01
2019-04-16T22:13:27.212Z,12.01
2019-04-16T22:15:57.351Z,11.98
2019-04-16T22:18:25.897Z,11.91
2019-04-16T22:20:54.210Z,11.84
2019-04-16T22:23:22.535Z,11.78
2019-04-16T22:25:50.837Z,11.74
2019-04-16T22:28:19.396Z,11.67
2019-04-16T22:30:51.236Z,11.59
2019-04-16T22:33:17.756Z,11.54
2019-04-16T22:35:46.522Z,11.49
2019-04-16T22:38:14.861Z,11.44
2019-04-16T22:40:56.653Z,11.41
2019-04-16T22:43:42.746Z,11.38
2019-04-16T22:46:13.202Z,11.37
2019-04-16T22:48:43.146Z,11.38
2019-04-16T22:51:11.742Z,11.42
2019-04-16T22:53:40.352Z,11.41
2019-04-16T22:56:09.829Z,11.44
2019-04-16T22:58:47.971Z,11.46
2019-04-16T23:01:17.322Z,11.46
2019-04-16T23:03:45.673Z,11.45
2019-04-16T23:06:14.022Z,11.45
2019-04-16T23:08:43.534Z,11.44
2019-04-16T23:11:12.555Z,11.41
2019-04-16T23:13:40.867Z,11.39
2019-04-16T23:16:09.487Z,11.35
2019-04-16T23:18:37.773Z,11.34
2019-04-16T23:21:10.671Z,11.31
2019-04-16T23:23:36.475Z,11.29
2019-04-16T23:26:05.464Z,11.27
2019-04-16T23:28:34.028Z,11.27
2019-04-16T23:31:02.431Z,11.26
2019-04-16T23:33:32.806Z,11.26
2019-04-16T23:36:00.846Z,11.26
2019-04-16T23:38:31.594Z,11.22
2019-04-16T23:40:59.191Z,11.15
2019-04-16T23:43:45.702Z,11.09
2019-04-16T23:46:21.085Z,11.05
2019-04-16T23:48:51.049Z,11.03
2019-04-16T23:51:28.663Z,10.98
2019-04-16T23:53:58.813Z,10.90
2019-04-16T23:56:28.825Z,10.81
2019-04-16T23:59:10.791Z,10.76
